Time;durP1;ratioP1;P1;durP2;ratioP2;P2;SDS_P1;SDS_P2;PMS_P1;PMS_P2;Temp;Humidity;BMP_temperature;BMP_pressure;BME280_temperature;BME280_humidity;BME280_pressure;Samples;Min_cycle;Max_cycle;Signal;HPM_P1;HPM_P2
2022/09/29 00:01:03;0.00;0.00;0.62;0.00;0.00;0.62;2.10;1.50;;;25.70;28.00;;;;;;2240080;62;20426;-69
2022/09/29 00:03:48;0.00;0.00;0.62;0.00;0.00;0.62;1.80;1.30;;;25.60;27.90;;;;;;2239759;62;20380;-69
2022/09/29 00:06:33;0.00;0.00;0.62;0.00;0.00;0.62;2.07;1.30;;;25.70;27.90;;;;;;2239681;62;20366;-68
2022/09/29 00:09:20;0.00;0.00;0.62;0.00;0.00;0.62;2.27;2.03;;;25.60;27.80;;;;;;2237821;62;20413;-69
2022/09/29 00:12:05;0.00;0.00;0.62;0.00;0.00;0.62;2.60;1.70;;;25.60;27.80;;;;;;2236021;62;20452;-68
2022/09/29 00:14:50;0.00;0.00;0.62;0.00;0.00;0.62;1.97;1.50;;;25.60;27.80;;;;;;2235411;62;20392;-69
2022/09/29 00:17:35;0.00;0.00;0.62;0.00;0.00;0.62;2.03;1.70;;;25.50;27.70;;;;;;2234796;62;20452;-69
2022/09/29 00:20:20;0.00;0.00;0.62;0.00;0.00;0.62;2.83;1.90;;;25.60;27.70;;;;;;2235370;62;20380;-69
2022/09/29 00:23:05;0.00;0.00;0.62;0.00;0.00;0.62;3.10;2.23;;;25.60;27.70;;;;;;2235190;62;20635;-69
2022/09/29 00:26:01;0.00;0.00;0.62;0.00;0.00;0.62;2.83;1.77;;;25.50;27.60;;;;;;2235115;62;20357;-69
2022/09/29 00:28:48;0.00;0.00;0.62;0.00;0.00;0.62;2.43;2.10;;;25.50;27.60;;;;;;2234862;62;20384;-68
2022/09/29 00:31:33;0.00;0.00;0.62;0.00;0.00;0.62;2.67;1.87;;;25.50;27.60;;;;;;2234639;62;20400;-69
2022/09/29 00:34:19;0.00;0.00;0.62;0.00;0.00;0.62;3.37;2.77;;;25.50;27.50;;;;;;2234858;62;20407;-69
2022/09/29 00:37:04;0.00;0.00;0.62;0.00;0.00;0.62;2.77;2.30;;;25.50;27.50;;;;;;2235340;62;20364;-69
2022/09/29 00:39:49;0.00;0.00;0.62;0.00;0.00;0.62;2.53;2.00;;;25.50;27.50;;;;;;2235498;62;20421;-69
2022/09/29 00:42:36;0.00;0.00;0.62;0.00;0.00;0.62;2.93;2.50;;;25.50;27.50;;;;;;2235901;62;20606;-68
2022/09/29 00:45:23;0.00;0.00;0.62;0.00;0.00;0.62;2.97;2.10;;;25.40;27.40;;;;;;2234942;62;20379;-68
2022/09/29 00:48:16;0.00;0.00;0.62;0.00;0.00;0.62;2.90;1.73;;;25.40;27.40;;;;;;2235623;62;20408;-68
2022/09/29 00:51:02;0.00;0.00;0.62;0.00;0.00;0.62;3.67;2.67;;;25.40;27.40;;;;;;2235640;62;20397;-68
2022/09/29 00:53:48;0.00;0.00;0.62;0.00;0.00;0.62;2.80;2.50;;;25.40;27.90;;;;;;2235205;62;20424;-68
2022/09/29 00:56:33;0.00;0.00;0.62;0.00;0.00;0.62;3.03;2.40;;;25.40;27.40;;;;;;2235350;62;20441;-68
2022/09/29 00:59:30;0.00;0.00;0.62;0.00;0.00;0.62;2.67;2.37;;;25.40;27.40;;;;;;2233645;62;20393;-68
2022/09/29 01:02:17;0.00;0.00;0.62;0.00;0.00;0.62;3.30;2.17;;;25.40;27.40;;;;;;2231816;62;20475;-68
2022/09/29 01:05:06;0.00;0.00;0.62;0.00;0.00;0.62;2.87;2.20;;;25.30;27.30;;;;;;2231789;62;20400;-70
2022/09/29 01:07:52;0.00;0.00;0.62;0.00;0.00;0.62;5.50;2.60;;;25.30;27.30;;;;;;2231335;62;20437;-68
2022/09/29 01:10:38;0.00;0.00;0.62;0.00;0.00;0.62;2.77;2.13;;;25.30;27.20;;;;;;2231699;62;20430;-68
2022/09/29 01:13:24;0.00;0.00;0.62;0.00;0.00;0.62;3.20;2.50;;;25.30;27.30;;;;;;2231533;62;20370;-69
2022/09/29 01:16:10;0.00;0.00;0.62;0.00;0.00;0.62;2.60;2.40;;;25.20;27.20;;;;;;2231534;62;20414;-67
2022/09/29 01:18:55;0.00;0.00;0.62;0.00;0.00;0.62;3.20;2.67;;;25.20;27.20;;;;;;2231884;62;20504;-68
2022/09/29 01:21:52;0.00;0.00;0.62;0.00;0.00;0.62;2.67;2.30;;;25.20;27.20;;;;;;2231569;62;20464;-68
2022/09/29 01:25:05;0.00;0.00;0.62;0.00;0.00;0.62;2.57;2.00;;;25.20;27.20;;;;;;2231532;62;20434;-67
2022/09/29 01:28:38;0.00;0.00;0.62;0.00;0.00;0.62;3.00;2.50;;;25.20;27.20;;;;;;2231418;62;20717;-68
2022/09/29 01:31:33;0.00;0.00;0.62;0.00;0.00;0.62;2.90;2.60;;;25.10;27.20;;;;;;2231642;62;20761;-68
2022/09/29 01:34:25;0.00;0.00;0.62;0.00;0.00;0.62;4.70;2.60;;;25.10;27.70;;;;;;2232011;62;20382;-68
2022/09/29 01:37:19;0.00;0.00;0.62;0.00;0.00;0.62;3.23;2.83;;;25.10;27.20;;;;;;2231722;62;20382;-68
2022/09/29 01:40:11;0.00;0.00;0.62;0.00;0.00;0.62;3.27;2.13;;;25.10;27.20;;;;;;2231573;62;20757;-68
2022/09/29 01:43:04;0.00;0.00;0.62;0.00;0.00;0.62;3.03;2.10;;;25.10;27.20;;;;;;2231832;62;20369;-68
2022/09/29 01:46:00;0.00;0.00;0.62;0.00;0.00;0.62;3.10;2.70;;;25.00;27.10;;;;;;2235167;62;20384;-68
2022/09/29 01:48:52;0.00;0.00;0.62;0.00;0.00;0.62;2.57;2.20;;;25.00;27.10;;;;;;2235516;62;20461;-69
2022/09/29 01:51:44;0.00;0.00;0.62;0.00;0.00;0.62;3.10;2.27;;;25.00;27.10;;;;;;2235379;62;20383;-68
2022/09/29 01:54:36;0.00;0.00;0.62;0.00;0.00;0.62;5.80;2.57;;;25.00;27.20;;;;;;2235297;62;20473;-68
2022/09/29 01:57:28;0.00;0.00;0.62;0.00;0.00;0.62;2.33;2.13;;;25.00;27.20;;;;;;2235433;62;20392;-68
2022/09/29 02:00:16;0.00;0.00;0.62;0.00;0.00;0.62;2.40;1.87;;;24.90;27.10;;;;;;2235201;62;20388;-68
2022/09/29 02:03:10;0.00;0.00;0.62;0.00;0.00;0.62;3.07;2.53;;;24.90;27.10;;;;;;2235587;62;20408;-68
2022/09/29 02:06:00;0.00;0.00;0.62;0.00;0.00;0.62;4.60;3.37;;;24.90;27.10;;;;;;2235432;62;20383;-68
2022/09/29 02:08:51;0.00;0.00;0.62;0.00;0.00;0.62;3.20;2.83;;;24.90;27.10;;;;;;2235360;62;20412;-68
2022/09/29 02:11:40;0.00;0.00;0.62;0.00;0.00;0.62;3.20;2.47;;;24.90;27.10;;;;;;2235249;62;20399;-68
2022/09/29 02:14:28;0.00;0.00;0.62;0.00;0.00;0.62;3.20;2.53;;;24.80;27.00;;;;;;2235453;62;20469;-68
2022/09/29 02:17:18;0.00;0.00;0.62;0.00;0.00;0.62;2.60;2.10;;;24.80;27.00;;;;;;2235503;62;20736;-68
2022/09/29 02:20:04;0.00;0.00;0.62;0.00;0.00;0.62;2.83;2.50;;;24.80;27.00;;;;;;2235221;62;20444;-68
2022/09/29 02:22:52;0.00;0.00;0.62;0.00;0.00;0.62;2.93;2.40;;;24.80;27.00;;;;;;2235324;62;20440;-68
2022/09/29 02:25:39;0.00;0.00;0.62;0.00;0.00;0.62;3.33;2.30;;;24.70;27.00;;;;;;2235486;62;20364;-68
2022/09/29 02:28:24;0.00;0.00;0.62;0.00;0.00;0.62;3.60;2.50;;;24.70;27.00;;;;;;2234900;62;20372;-68
2022/09/29 02:31:09;0.00;0.00;0.62;0.00;0.00;0.62;2.47;2.10;;;24.70;27.00;;;;;;2235438;62;20375;-68
2022/09/29 02:33:54;0.00;0.00;0.62;0.00;0.00;0.62;3.30;2.37;;;24.70;27.00;;;;;;2235540;62;20578;-68
2022/09/29 02:36:51;0.00;0.00;0.62;0.00;0.00;0.62;3.70;2.63;;;24.70;27.00;;;;;;2234882;62;20368;-68
2022/09/29 02:39:50;0.00;0.00;0.62;0.00;0.00;0.62;3.23;2.40;;;24.60;26.90;;;;;;2235393;62;20412;-68
2022/09/29 02:42:43;0.00;0.00;0.62;0.00;0.00;0.62;2.50;2.20;;;24.60;26.90;;;;;;2235502;62;20408;-68
2022/09/29 02:45:39;0.00;0.00;0.62;0.00;0.00;0.62;3.30;2.50;;;24.60;26.90;;;;;;2231848;62;20745;-68
2022/09/29 02:48:59;0.00;0.00;0.62;0.00;0.00;0.62;3.30;2.70;;;24.60;26.90;;;;;;2232001;62;20365;-68
2022/09/29 02:51:47;0.00;0.00;0.62;0.00;0.00;0.62;3.03;2.43;;;24.60;26.90;;;;;;2231149;62;20377;-68
2022/09/29 02:54:48;0.00;0.00;0.62;0.00;0.00;0.62;2.60;2.10;;;24.50;26.90;;;;;;2231357;62;20461;-68
2022/09/29 02:57:44;0.00;0.00;0.62;0.00;0.00;0.62;3.03;2.30;;;24.50;26.90;;;;;;2230398;62;20369;-69
2022/09/29 03:00:30;0.00;0.00;0.62;0.00;0.00;0.62;3.00;2.40;;;24.50;26.90;;;;;;2231223;62;20385;-69
2022/09/29 03:03:15;0.00;0.00;0.62;0.00;0.00;0.62;3.10;2.43;;;24.50;26.90;;;;;;2231693;62;20429;-68
2022/09/29 03:06:00;0.00;0.00;0.62;0.00;0.00;0.62;3.10;2.40;;;24.50;26.90;;;;;;2231331;62;20405;-68
2022/09/29 03:08:45;0.00;0.00;0.62;0.00;0.00;0.62;2.83;2.20;;;24.50;26.90;;;;;;2231515;62;20365;-69
2022/09/29 03:11:31;0.00;0.00;0.62;0.00;0.00;0.62;3.40;2.80;;;24.40;26.80;;;;;;2231472;62;20394;-68
2022/09/29 03:14:16;0.00;0.00;0.62;0.00;0.00;0.62;3.60;2.53;;;24.40;26.80;;;;;;2231123;62;20389;-68
2022/09/29 03:17:01;0.00;0.00;0.62;0.00;0.00;0.62;2.93;2.40;;;24.40;26.80;;;;;;2231384;62;20389;-68
2022/09/29 03:19:45;0.00;0.00;0.62;0.00;0.00;0.62;4.20;2.63;;;24.40;26.80;;;;;;2231303;62;20389;-68
2022/09/29 03:22:31;0.00;0.00;0.62;0.00;0.00;0.62;2.90;2.17;;;24.30;26.70;;;;;;2231410;62;20365;-69
2022/09/29 03:25:16;0.00;0.00;0.62;0.00;0.00;0.62;3.00;2.53;;;24.30;26.80;;;;;;2231546;62;20372;-69
2022/09/29 03:28:02;0.00;0.00;0.62;0.00;0.00;0.62;3.00;2.43;;;24.30;26.80;;;;;;2230633;62;20585;-69
2022/09/29 03:30:47;0.00;0.00;0.62;0.00;0.00;0.62;2.67;2.47;;;24.30;26.80;;;;;;2231074;62;20396;-68
2022/09/29 03:33:33;0.00;0.00;0.62;0.00;0.00;0.62;3.20;2.60;;;24.30;26.80;;;;;;2230773;62;20736;-69
2022/09/29 03:36:18;0.00;0.00;0.62;0.00;0.00;0.62;3.77;2.30;;;24.20;26.70;;;;;;2231163;62;20362;-68
2022/09/29 03:39:04;0.00;0.00;0.62;0.00;0.00;0.62;3.00;2.50;;;24.20;26.70;;;;;;2231799;62;20418;-69
2022/09/29 03:41:49;0.00;0.00;0.62;0.00;0.00;0.62;3.00;2.23;;;24.20;26.70;;;;;;2234473;62;20380;-68
2022/09/29 03:44:36;0.00;0.00;0.62;0.00;0.00;0.62;3.03;2.37;;;24.20;26.70;;;;;;2232127;62;20360;-69
2022/09/29 03:47:21;0.00;0.00;0.62;0.00;0.00;0.62;3.30;2.60;;;24.20;26.70;;;;;;2230545;62;20732;-69
2022/09/29 03:50:07;0.00;0.00;0.62;0.00;0.00;0.62;2.60;2.20;;;24.20;26.70;;;;;;2230109;62;20761;-68
2022/09/29 03:52:52;0.00;0.00;0.62;0.00;0.00;0.62;2.77;2.27;;;24.10;26.70;;;;;;2230362;62;20419;-70
2022/09/29 03:55:37;0.00;0.00;0.62;0.00;0.00;0.62;3.13;2.03;;;24.10;26.70;;;;;;2230644;62;20430;-68
2022/09/29 03:58:22;0.00;0.00;0.62;0.00;0.00;0.62;2.93;2.37;;;24.10;26.70;;;;;;2230679;62;20372;-68
2022/09/29 04:01:08;0.00;0.00;0.62;0.00;0.00;0.62;3.00;2.30;;;24.10;26.70;;;;;;2231229;62;20603;-68
2022/09/29 04:03:53;0.00;0.00;0.62;0.00;0.00;0.62;3.40;2.53;;;24.00;26.60;;;;;;2231070;62;20374;-68
2022/09/29 04:06:37;0.00;0.00;0.62;0.00;0.00;0.62;2.40;2.17;;;24.00;26.60;;;;;;2231010;62;20396;-68
2022/09/29 04:09:22;0.00;0.00;0.62;0.00;0.00;0.62;3.47;2.80;;;24.00;26.60;;;;;;2231291;62;20461;-68
2022/09/29 04:12:07;0.00;0.00;0.62;0.00;0.00;0.62;2.87;2.00;;;24.00;26.70;;;;;;2230619;62;20763;-68
2022/09/29 04:14:52;0.00;0.00;0.62;0.00;0.00;0.62;3.17;2.30;;;24.00;26.70;;;;;;2231071;62;20615;-69
2022/09/29 04:17:39;0.00;0.00;0.62;0.00;0.00;0.62;2.77;2.17;;;24.00;26.70;;;;;;2231208;62;20360;-69
2022/09/29 04:20:24;0.00;0.00;0.62;0.00;0.00;0.62;2.83;2.33;;;24.00;26.70;;;;;;2231014;62;20397;-69
2022/09/29 04:23:09;0.00;0.00;0.62;0.00;0.00;0.62;2.80;2.37;;;23.90;26.60;;;;;;2230945;62;20741;-69
2022/09/29 04:25:54;0.00;0.00;0.62;0.00;0.00;0.62;2.60;2.17;;;23.90;26.60;;;;;;2231346;62;20369;-68
2022/09/29 04:28:40;0.00;0.00;0.62;0.00;0.00;0.62;2.70;2.30;;;23.90;26.60;;;;;;2230890;62;20365;-68
2022/09/29 04:31:25;0.00;0.00;0.62;0.00;0.00;0.62;2.70;2.33;;;23.90;26.60;;;;;;2230728;62;20426;-69
2022/09/29 04:34:11;0.00;0.00;0.62;0.00;0.00;0.62;3.50;3.17;;;23.80;26.60;;;;;;2230964;62;20607;-69
2022/09/29 04:36:57;0.00;0.00;0.62;0.00;0.00;0.62;2.83;2.20;;;23.80;26.60;;;;;;2230891;62;20446;-69
2022/09/29 04:39:42;0.00;0.00;0.62;0.00;0.00;0.62;2.87;2.27;;;23.80;26.60;;;;;;2230983;62;20385;-69
2022/09/29 04:42:27;0.00;0.00;0.62;0.00;0.00;0.62;3.77;2.53;;;23.80;26.60;;;;;;2230324;62;20357;-68
2022/09/29 04:45:11;0.00;0.00;0.62;0.00;0.00;0.62;4.63;2.80;;;23.70;26.50;;;;;;2230569;62;20442;-69
2022/09/29 04:47:57;0.00;0.00;0.62;0.00;0.00;0.62;3.13;2.60;;;23.70;26.50;;;;;;2231761;62;20473;-69
2022/09/29 04:50:44;0.00;0.00;0.62;0.00;0.00;0.62;3.07;2.60;;;23.70;26.50;;;;;;2231540;62;20381;-69
2022/09/29 04:53:29;0.00;0.00;0.62;0.00;0.00;0.62;4.30;2.40;;;23.70;26.60;;;;;;2231927;62;20373;-70
2022/09/29 04:56:14;0.00;0.00;0.62;0.00;0.00;0.62;4.00;2.63;;;23.70;26.60;;;;;;2231743;62;20639;-69
2022/09/29 04:58:58;0.00;0.00;0.62;0.00;0.00;0.62;3.00;2.47;;;23.60;26.50;;;;;;2231846;62;20393;-69
2022/09/29 05:01:43;0.00;0.00;0.62;0.00;0.00;0.62;3.43;2.77;;;23.60;26.60;;;;;;2231859;62;20394;-70
2022/09/29 05:04:28;0.00;0.00;0.62;0.00;0.00;0.62;3.20;2.83;;;23.60;26.60;;;;;;2231586;62;20463;-68
2022/09/29 05:07:14;0.00;0.00;0.62;0.00;0.00;0.62;3.40;2.90;;;23.60;26.60;;;;;;2231994;62;20365;-69
2022/09/29 05:09:59;0.00;0.00;0.62;0.00;0.00;0.62;3.60;3.13;;;23.60;26.60;;;;;;2233985;62;20407;-70
2022/09/29 05:12:48;0.00;0.00;0.62;0.00;0.00;0.62;3.03;2.60;;;23.60;26.60;;;;;;2235334;62;20381;-69
2022/09/29 05:15:33;0.00;0.00;0.62;0.00;0.00;0.62;3.67;2.70;;;23.60;26.60;;;;;;2235833;62;20440;-69
2022/09/29 05:18:18;0.00;0.00;0.62;0.00;0.00;0.62;3.70;3.33;;;23.50;26.50;;;;;;2235611;62;20381;-69
2022/09/29 05:21:05;0.00;0.00;0.62;0.00;0.00;0.62;3.87;3.33;;;23.50;26.50;;;;;;2235745;62;20368;-69
2022/09/29 05:23:51;0.00;0.00;0.62;0.00;0.00;0.62;4.03;3.53;;;23.50;26.60;;;;;;2235886;62;20776;-69
2022/09/29 05:26:36;0.00;0.00;0.62;0.00;0.00;0.62;3.80;3.00;;;23.50;26.60;;;;;;2234958;62;20444;-69
2022/09/29 05:29:22;0.00;0.00;0.62;0.00;0.00;0.62;4.00;3.30;;;23.50;27.10;;;;;;2234752;62;20401;-69
2022/09/29 05:32:07;0.00;0.00;0.62;0.00;0.00;0.62;4.27;3.57;;;23.50;26.60;;;;;;2235557;62;20372;-69
2022/09/29 05:34:51;0.00;0.00;0.62;0.00;0.00;0.62;3.83;3.40;;;23.50;26.60;;;;;;2235463;62;20404;-68
2022/09/29 05:37:36;0.00;0.00;0.62;0.00;0.00;0.62;4.23;3.23;;;23.40;26.50;;;;;;2235606;62;20599;-68
2022/09/29 05:40:23;0.00;0.00;0.62;0.00;0.00;0.62;3.70;3.30;;;23.40;26.50;;;;;;2235601;62;20395;-70
2022/09/29 05:43:08;0.00;0.00;0.62;0.00;0.00;0.62;4.20;3.80;;;23.40;26.50;;;;;;2235652;62;20368;-70
2022/09/29 05:45:58;0.00;0.00;0.62;0.00;0.00;0.62;5.47;4.17;;;23.40;26.50;;;;;;2236538;62;20580;-70
2022/09/29 05:48:44;0.00;0.00;0.62;0.00;0.00;0.62;4.83;3.90;;;23.40;26.50;;;;;;2234987;62;20360;-67
2022/09/29 05:51:29;0.00;0.00;0.62;0.00;0.00;0.62;4.13;3.73;;;23.40;26.50;;;;;;2236106;62;20364;-66
2022/09/29 05:54:14;0.00;0.00;0.62;0.00;0.00;0.62;4.90;4.40;;;23.30;26.50;;;;;;2235714;62;20407;-67
2022/09/29 05:57:01;0.00;0.00;0.62;0.00;0.00;0.62;4.60;4.13;;;23.30;26.50;;;;;;2233901;62;20682;-67
2022/09/29 05:59:46;0.00;0.00;0.62;0.00;0.00;0.62;4.30;3.90;;;23.30;26.60;;;;;;2235301;62;20468;-66
2022/09/29 06:02:31;0.00;0.00;0.62;0.00;0.00;0.62;6.17;4.47;;;23.30;26.60;;;;;;2235273;62;20778;-68
2022/09/29 06:05:16;0.00;0.00;0.62;0.00;0.00;0.62;4.00;3.60;;;23.30;26.60;;;;;;2235029;62;20376;-68
2022/09/29 06:08:02;0.00;0.00;0.62;0.00;0.00;0.62;5.70;4.97;;;23.30;27.20;;;;;;2235260;62;20367;-69
2022/09/29 06:10:47;0.00;0.00;0.62;0.00;0.00;0.62;5.50;4.80;;;23.30;26.60;;;;;;2235516;62;20388;-65
2022/09/29 06:13:37;0.00;0.00;0.62;0.00;0.00;0.62;4.67;4.17;;;23.30;26.70;;;;;;2234911;62;20765;-64
2022/09/29 06:16:24;0.00;0.00;0.62;0.00;0.00;0.62;4.97;4.40;;;23.30;26.60;;;;;;2235740;62;20368;-70
2022/09/29 06:19:10;0.00;0.00;0.62;0.00;0.00;0.62;5.23;4.20;;;23.30;26.60;;;;;;2235418;62;20384;-68
2022/09/29 06:21:55;0.00;0.00;0.62;0.00;0.00;0.62;5.20;3.73;;;23.30;26.60;;;;;;2236012;62;20357;-68
2022/09/29 06:24:40;0.00;0.00;0.62;0.00;0.00;0.62;8.10;4.60;;;23.30;26.60;;;;;;2235015;62;20360;-66
2022/09/29 06:27:25;0.00;0.00;0.62;0.00;0.00;0.62;6.27;4.83;;;23.30;26.70;;;;;;2235262;62;20376;-65
2022/09/29 06:30:13;0.00;0.00;0.62;0.00;0.00;0.62;6.37;5.13;;;23.30;26.70;;;;;;2235495;62;20505;-63
2022/09/29 06:32:57;0.00;0.00;0.62;0.00;0.00;0.62;6.80;5.80;;;23.30;26.70;;;;;;2235167;62;20756;-62
2022/09/29 06:38:50;0.00;0.00;0.62;0.00;0.00;0.62;7.63;5.43;;;23.20;26.60;;;;;;2234918;62;20793;-68
2022/09/29 06:41:35;0.00;0.00;0.62;0.00;0.00;0.62;8.27;6.10;;;23.20;26.60;;;;;;2235732;62;20360;-70
2022/09/29 06:44:21;0.00;0.00;0.62;0.00;0.00;0.62;7.40;5.57;;;23.20;26.60;;;;;;2235673;62;20830;-71
2022/09/29 06:47:07;0.00;0.00;0.62;0.00;0.00;0.62;6.30;5.43;;;23.20;26.60;;;;;;2234663;62;20388;-67
2022/09/29 06:49:52;0.00;0.00;0.62;0.00;0.00;0.62;6.50;5.60;;;23.20;26.70;;;;;;2233034;62;20404;-68
2022/09/29 06:52:37;0.00;0.00;0.62;0.00;0.00;0.62;6.50;5.70;;;23.20;26.60;;;;;;2235571;62;20729;-63
2022/09/29 06:55:24;0.00;0.00;0.62;0.00;0.00;0.62;6.47;5.23;;;23.20;26.70;;;;;;2235227;62;20912;-64
2022/09/29 06:58:09;0.00;0.00;0.62;0.00;0.00;0.62;6.17;5.53;;;23.20;27.20;;;;;;2235187;62;20361;-66
2022/09/29 07:00:54;0.00;0.00;0.62;0.00;0.00;0.62;7.33;6.07;;;23.20;26.70;;;;;;2235088;62;20395;-70
2022/09/29 07:03:41;0.00;0.00;0.62;0.00;0.00;0.62;9.40;7.00;;;23.20;26.70;;;;;;2235183;62;20726;-71
2022/09/29 07:06:28;0.00;0.00;0.62;0.00;0.00;0.62;7.23;6.20;;;23.20;26.70;;;;;;2234831;62;20385;-64
2022/09/29 07:09:16;0.00;0.00;0.62;0.00;0.00;0.62;6.53;5.93;;;23.20;26.70;;;;;;2233486;62;20389;-64
2022/09/29 07:12:01;0.00;0.00;0.62;0.00;0.00;0.62;8.60;5.97;;;23.10;26.70;;;;;;2231009;62;20369;-64
2022/09/29 07:14:46;0.00;0.00;0.62;0.00;0.00;0.62;6.83;5.97;;;23.10;26.60;;;;;;2231347;62;20392;-65
2022/09/29 07:17:31;0.00;0.00;0.62;0.00;0.00;0.62;6.37;5.60;;;23.10;26.60;;;;;;2230605;62;20364;-63
2022/09/29 07:20:18;0.00;0.00;0.62;0.00;0.00;0.62;8.67;6.10;;;23.10;26.70;;;;;;2230958;62;20495;-64
2022/09/29 07:23:03;0.00;0.00;0.62;0.00;0.00;0.62;6.80;4.50;;;23.10;26.70;;;;;;2231050;62;20381;-66
2022/09/29 07:25:49;0.00;0.00;0.62;0.00;0.00;0.62;6.93;5.60;;;23.10;26.70;;;;;;2230946;62;20406;-63
2022/09/29 07:28:35;0.00;0.00;0.62;0.00;0.00;0.62;5.37;4.30;;;23.10;26.80;;;;;;2230671;62;20582;-62
2022/09/29 07:31:21;0.00;0.00;0.62;0.00;0.00;0.62;4.70;4.23;;;23.10;26.80;;;;;;2230389;62;20393;-61
2022/09/29 07:34:06;0.00;0.00;0.62;0.00;0.00;0.62;4.90;3.80;;;23.10;26.80;;;;;;2231038;62;20610;-65
2022/09/29 07:36:52;0.00;0.00;0.62;0.00;0.00;0.62;5.30;4.50;;;23.10;26.90;;;;;;2231340;62;20425;-65
2022/09/29 07:39:38;0.00;0.00;0.62;0.00;0.00;0.62;6.40;4.10;;;23.10;26.90;;;;;;2230866;62;20392;-63
2022/09/29 07:42:23;0.00;0.00;0.62;0.00;0.00;0.62;6.60;4.57;;;23.10;26.90;;;;;;2231146;62;20432;-65
2022/09/29 07:45:15;0.00;0.00;0.62;0.00;0.00;0.62;4.63;4.03;;;23.20;27.00;;;;;;2233927;62;20440;-65
2022/09/29 07:48:00;0.00;0.00;0.62;0.00;0.00;0.62;4.50;3.70;;;23.20;26.90;;;;;;2234495;62;20364;-63
2022/09/29 07:50:45;0.00;0.00;0.62;0.00;0.00;0.62;5.63;4.60;;;23.20;27.00;;;;;;2235254;62;20505;-62
2022/09/29 07:53:33;0.00;0.00;0.62;0.00;0.00;0.62;5.60;4.47;;;23.20;26.90;;;;;;2234804;62;20568;-63
2022/09/29 07:56:21;0.00;0.00;0.62;0.00;0.00;0.62;4.00;3.60;;;23.30;27.00;;;;;;2233795;62;20396;-63
2022/09/29 07:59:06;0.00;0.00;0.62;0.00;0.00;0.62;4.03;3.20;;;23.30;27.00;;;;;;2234880;62;20380;-64
2022/09/29 08:01:52;0.00;0.00;0.62;0.00;0.00;0.62;3.83;2.97;;;23.30;27.00;;;;;;2234811;62;20585;-63
2022/09/29 08:04:37;0.00;0.00;0.62;0.00;0.00;0.62;3.87;3.43;;;23.30;27.00;;;;;;2234857;62;20412;-63
2022/09/29 08:07:23;0.00;0.00;0.62;0.00;0.00;0.62;3.80;3.40;;;23.30;27.00;;;;;;2234772;62;20367;-63
2022/09/29 08:10:09;0.00;0.00;0.62;0.00;0.00;0.62;4.00;3.20;;;23.30;27.00;;;;;;2234608;62;20396;-63
2022/09/29 08:12:55;0.00;0.00;0.62;0.00;0.00;0.62;3.97;3.20;;;23.40;27.10;;;;;;2235145;62;20481;-64
2022/09/29 08:15:40;0.00;0.00;0.62;0.00;0.00;0.62;5.60;4.30;;;23.40;27.10;;;;;;2234889;62;20419;-63
2022/09/29 08:18:25;0.00;0.00;0.62;0.00;0.00;0.62;3.63;2.93;;;23.40;27.10;;;;;;2235399;62;20638;-64
2022/09/29 08:21:13;0.00;0.00;0.62;0.00;0.00;0.62;4.50;3.63;;;23.40;27.10;;;;;;2235805;62;20360;-63
2022/09/29 08:23:59;0.00;0.00;0.62;0.00;0.00;0.62;4.70;3.30;;;23.50;27.10;;;;;;2235363;62;20444;-63
2022/09/29 08:26:45;0.00;0.00;0.62;0.00;0.00;0.62;3.83;2.97;;;23.50;27.20;;;;;;2235683;62;20356;-65
2022/09/29 08:29:30;0.00;0.00;0.62;0.00;0.00;0.62;3.30;2.90;;;23.50;27.10;;;;;;2235503;62;20772;-65
2022/09/29 08:32:16;0.00;0.00;0.62;0.00;0.00;0.62;3.70;3.00;;;23.50;27.10;;;;;;2235437;62;20396;-63
2022/09/29 08:35:01;0.00;0.00;0.62;0.00;0.00;0.62;3.87;2.67;;;23.50;27.10;;;;;;2235454;62;20408;-62
2022/09/29 08:37:47;0.00;0.00;0.62;0.00;0.00;0.62;3.33;2.70;;;23.60;27.20;;;;;;2235369;62;20733;-65
2022/09/29 08:40:33;0.00;0.00;0.62;0.00;0.00;0.62;3.80;3.13;;;23.60;27.20;;;;;;2235504;62;20450;-64
2022/09/29 08:43:25;0.00;0.00;0.62;0.00;0.00;0.62;3.70;3.27;;;23.60;27.10;;;;;;2235887;62;20429;-65
2022/09/29 08:46:22;0.00;0.00;0.62;0.00;0.00;0.62;4.40;3.40;;;23.60;27.20;;;;;;2235274;62;20369;-64
2022/09/29 08:49:14;0.00;0.00;0.62;0.00;0.00;0.62;3.80;2.63;;;23.60;27.20;;;;;;2235504;62;20485;-63
2022/09/29 08:52:06;0.00;0.00;0.62;0.00;0.00;0.62;4.27;3.40;;;23.70;27.20;;;;;;2235322;62;20389;-63
2022/09/29 08:54:58;0.00;0.00;0.62;0.00;0.00;0.62;3.17;2.60;;;23.60;27.20;;;;;;2234875;62;20433;-63
2022/09/29 08:57:45;0.00;0.00;0.62;0.00;0.00;0.62;3.33;2.60;;;23.70;27.20;;;;;;2235527;62;20409;-63
2022/09/29 09:00:41;0.00;0.00;0.62;0.00;0.00;0.62;3.10;2.80;;;23.70;27.20;;;;;;2235437;62;20448;-63
2022/09/29 09:04:09;0.00;0.00;0.62;0.00;0.00;0.62;3.83;2.87;;;23.70;27.20;;;;;;2237439;62;20372;-64
2022/09/29 09:07:09;0.00;0.00;0.62;0.00;0.00;0.62;2.87;2.33;;;23.70;27.20;;;;;;2230641;62;20590;-63
2022/09/29 09:10:06;0.00;0.00;0.62;0.00;0.00;0.62;3.10;2.80;;;23.80;27.20;;;;;;2235314;62;20421;-64
2022/09/29 09:13:13;0.00;0.00;0.62;0.00;0.00;0.62;3.63;3.07;;;23.80;27.20;;;;;;2235620;62;20385;-65
2022/09/29 09:16:14;0.00;0.00;0.62;0.00;0.00;0.62;3.07;2.77;;;23.80;27.30;;;;;;2235494;62;20465;-63
2022/09/29 09:19:38;0.00;0.00;0.62;0.00;0.00;0.62;3.53;3.23;;;23.80;27.20;;;;;;2235490;62;20398;-63
2022/09/29 09:22:27;0.00;0.00;0.62;0.00;0.00;0.62;3.60;2.70;;;23.90;27.30;;;;;;2235295;62;20371;-63
2022/09/29 09:25:25;0.00;0.00;0.62;0.00;0.00;0.62;2.67;2.33;;;23.90;27.30;;;;;;2235325;62;20420;-62
2022/09/29 09:28:15;0.00;0.00;0.62;0.00;0.00;0.62;3.17;2.47;;;23.90;27.30;;;;;;2235627;62;20373;-64
2022/09/29 09:31:08;0.00;0.00;0.62;0.00;0.00;0.62;3.90;2.97;;;23.90;27.30;;;;;;2235083;62;20422;-64
2022/09/29 09:33:58;0.00;0.00;0.62;0.00;0.00;0.62;3.27;2.73;;;23.90;27.40;;;;;;2235551;62;20365;-64
2022/09/29 09:36:49;0.00;0.00;0.62;0.00;0.00;0.62;3.23;2.33;;;24.00;27.40;;;;;;2235127;62;20372;-65
2022/09/29 09:39:37;0.00;0.00;0.62;0.00;0.00;0.62;3.70;2.90;;;24.00;27.40;;;;;;2234907;62;20499;-64
2022/09/29 09:42:26;0.00;0.00;0.62;0.00;0.00;0.62;3.63;2.87;;;24.00;27.40;;;;;;2235405;62;20380;-64
2022/09/29 09:45:26;0.00;0.00;0.62;0.00;0.00;0.62;3.20;2.70;;;24.00;27.40;;;;;;2234862;62;20356;-62
2022/09/29 09:48:17;0.00;0.00;0.62;0.00;0.00;0.62;3.00;2.40;;;24.10;27.40;;;;;;2235466;62;20360;-64
2022/09/29 09:51:28;0.00;0.00;0.62;0.00;0.00;0.62;3.80;3.40;;;24.10;27.50;;;;;;2235230;62;20361;-63
2022/09/29 09:54:24;0.00;0.00;0.62;0.00;0.00;0.62;2.80;2.23;;;24.10;27.40;;;;;;2234868;62;20441;-65
2022/09/29 09:57:40;0.00;0.00;0.62;0.00;0.00;0.62;3.60;3.07;;;24.20;27.50;;;;;;2235310;62;20618;-65
2022/09/29 10:00:30;0.00;0.00;0.62;0.00;0.00;0.62;3.17;2.33;;;24.20;27.50;;;;;;2235365;62;20605;-63
2022/09/29 10:03:17;0.00;0.00;0.62;0.00;0.00;0.62;2.63;2.17;;;24.30;27.60;;;;;;2235510;62;20765;-63
2022/09/29 10:06:05;0.00;0.00;0.62;0.00;0.00;0.62;3.23;2.50;;;24.30;27.50;;;;;;2235138;62;20371;-64
2022/09/29 10:08:50;0.00;0.00;0.62;0.00;0.00;0.62;2.87;2.00;;;24.30;27.50;;;;;;2234900;62;20370;-65
2022/09/29 10:11:35;0.00;0.00;0.62;0.00;0.00;0.62;2.90;2.53;;;24.30;27.50;;;;;;2235504;62;20363;-63
2022/09/29 10:14:24;0.00;0.00;0.62;0.00;0.00;0.62;2.40;1.73;;;24.40;27.50;;;;;;2234788;62;20372;-65
2022/09/29 10:17:12;0.00;0.00;0.62;0.00;0.00;0.62;2.57;2.37;;;24.40;27.60;;;;;;2235054;62;20364;-64
2022/09/29 10:20:02;0.00;0.00;0.62;0.00;0.00;0.62;2.90;2.23;;;24.40;27.50;;;;;;2235636;62;20388;-64
2022/09/29 10:22:47;0.00;0.00;0.62;0.00;0.00;0.62;3.23;2.50;;;24.50;27.60;;;;;;2234633;62;20372;-62
2022/09/29 10:25:33;0.00;0.00;0.62;0.00;0.00;0.62;3.20;2.90;;;24.50;27.50;;;;;;2234663;62;20395;-63
2022/09/29 10:28:19;0.00;0.00;0.62;0.00;0.00;0.62;2.47;2.17;;;24.50;27.50;;;;;;2234516;62;20581;-65
2022/09/29 10:31:20;0.00;0.00;0.62;0.00;0.00;0.62;2.50;2.07;;;24.50;27.50;;;;;;2234476;62;20433;-65
2022/09/29 10:34:16;0.00;0.00;0.62;0.00;0.00;0.62;2.50;2.00;;;24.60;27.50;;;;;;2234591;62;20364;-64
2022/09/29 10:37:06;0.00;0.00;0.62;0.00;0.00;0.62;3.10;2.20;;;24.60;27.60;;;;;;2234115;62;20361;-65
2022/09/29 10:40:03;0.00;0.00;0.62;0.00;0.00;0.62;2.90;2.20;;;24.60;27.50;;;;;;2234549;62;20388;-65
2022/09/29 10:42:50;0.00;0.00;0.62;0.00;0.00;0.62;2.30;1.73;;;24.70;27.60;;;;;;2234893;62;20445;-65
2022/09/29 10:45:46;0.00;0.00;0.62;0.00;0.00;0.62;2.43;2.17;;;24.70;27.60;;;;;;2235053;62;20359;-63
2022/09/29 10:48:32;0.00;0.00;0.62;0.00;0.00;0.62;2.60;2.17;;;24.70;27.60;;;;;;2235384;62;20352;-64
2022/09/29 10:51:23;0.00;0.00;0.62;0.00;0.00;0.62;2.60;2.20;;;24.80;27.60;;;;;;2235273;62;20367;-62
2022/09/29 10:54:15;0.00;0.00;0.62;0.00;0.00;0.62;2.77;1.97;;;24.80;27.60;;;;;;2235140;62;20582;-63
2022/09/29 10:57:11;0.00;0.00;0.62;0.00;0.00;0.62;3.30;2.13;;;24.90;27.70;;;;;;2235093;62;20366;-65
2022/09/29 10:59:57;0.00;0.00;0.62;0.00;0.00;0.62;2.43;1.90;;;24.90;27.60;;;;;;2235053;62;20424;-63
2022/09/29 11:02:42;0.00;0.00;0.62;0.00;0.00;0.62;2.63;2.10;;;24.90;28.10;;;;;;2235257;62;20445;-64
2022/09/29 11:05:27;0.00;0.00;0.62;0.00;0.00;0.62;2.70;2.13;;;25.00;27.60;;;;;;2234763;62;20376;-65
2022/09/29 11:08:12;0.00;0.00;0.62;0.00;0.00;0.62;2.30;1.80;;;25.00;27.60;;;;;;2234899;62;20408;-64